Time;durP1;ratioP1;P1;durP2;ratioP2;P2;SDS_P1;SDS_P2;PMS_P1;PMS_P2;Temp;Humidity;BMP_temperature;BMP_pressure;BME280_temperature;BME280_humidity;BME280_pressure;Samples;Min_cycle;Max_cycle;Signal;HPM_P1;HPM_P2
2022/05/21 00:01:47;;;;;;;;;;;;;;;-142.75;100.00;77432.56;5012477;28;19940;-68
2022/05/21 00:04:12;;;;;;;;;;;;;;;-142.75;100.00;77440.44;5011828;28;19913;-67
2022/05/21 00:06:38;;;;;;;;;;;;;;;-142.75;100.00;77432.56;5011816;28;19929;-67
2022/05/21 00:09:04;;;;;;;;;;;;;;;-142.75;100.00;77422.72;5009670;28;20021;-67
2022/05/21 00:11:29;;;;;;;;;;;;;;;-142.75;100.00;77428.63;5010142;28;20359;-68
2022/05/21 00:13:55;;;;;;;;;;;;;;;-142.75;100.00;77420.75;5009634;28;19917;-67
2022/05/21 00:16:20;;;;;;;;;;;;;;;-142.75;100.00;77424.69;5009604;28;19944;-67
2022/05/21 00:18:47;;;;;;;;;;;;;;;-142.75;100.00;77424.69;5012948;22;19918;-67
2022/05/21 00:21:12;;;;;;;;;;;;;;;-142.75;100.00;77424.69;4989552;28;19984;-67
2022/05/21 00:23:38;;;;;;;;;;;;;;;-142.75;100.00;77416.81;4990514;28;20364;-67
2022/05/21 00:26:07;;;;;;;;;;;;;;;-142.75;100.00;77416.81;4990780;28;20001;-67
2022/05/21 00:28:33;;;;;;;;;;;;;;;-142.75;100.00;77424.69;4989231;28;19918;-67
2022/05/21 00:30:59;;;;;;;;;;;;;;;-142.75;100.00;77422.72;4991119;28;19917;-67
2022/05/21 00:33:25;;;;;;;;;;;;;;;-142.75;100.00;77420.75;4991249;28;19921;-67
2022/05/21 00:35:51;;;;;;;;;;;;;;;-142.75;100.00;77422.72;4989648;28;20282;-67
2022/05/21 00:38:16;;;;;;;;;;;;;;;-142.75;100.00;77422.72;4990649;28;19913;-67
2022/05/21 00:40:42;;;;;;;;;;;;;;;-142.75;100.00;77416.81;4990988;28;20330;-67
2022/05/21 00:43:27;;;;;;;;;;;;;;;-142.75;100.00;77418.78;4990753;28;19916;-67
2022/05/21 00:45:52;;;;;;;;;;;;;;;-142.75;100.00;77416.81;4989330;28;19917;-67
2022/05/21 00:48:17;;;;;;;;;;;;;;;-142.75;100.00;77416.81;4990252;28;19909;-67
2022/05/21 00:50:42;;;;;;;;;;;;;;;-142.75;100.00;77418.78;4990586;28;19910;-67
2022/05/21 00:53:10;;;;;;;;;;;;;;;-142.75;100.00;77408.94;4990633;28;20055;-67
2022/05/21 00:55:35;;;;;;;;;;;;;;;-142.75;100.00;77408.94;4990452;28;20011;-67
2022/05/21 01:00:46;;;;;;;;;;;;;;;-142.75;100.00;77408.94;4991003;28;19917;-67
2022/05/21 01:03:13;;;;;;;;;;;;;;;-142.75;100.00;77406.97;4990886;28;19951;-67
2022/05/21 01:05:38;;;;;;;;;;;;;;;-142.75;100.00;77405.00;4990329;28;19909;-67
2022/05/21 01:08:04;;;;;;;;;;;;;;;-142.75;100.00;77405.00;4990473;28;19909;-67
2022/05/21 01:10:33;;;;;;;;;;;;;;;-142.75;100.00;77397.13;4990507;28;19941;-67
2022/05/21 01:13:00;;;;;;;;;;;;;;;-142.75;100.00;77397.13;4989089;28;20020;-67
2022/05/21 01:15:46;;;;;;;;;;;;;;;-142.75;100.00;77401.06;4989170;28;19984;-67
2022/05/21 01:18:11;;;;;;;;;;;;;;;-142.75;100.00;77399.09;4989845;28;19909;-66
2022/05/21 01:20:38;;;;;;;;;;;;;;;-142.75;100.00;77389.25;4990433;28;19910;-67
2022/05/21 01:23:04;;;;;;;;;;;;;;;-142.75;100.00;77387.28;4989015;28;19910;-67
2022/05/21 01:25:31;;;;;;;;;;;;;;;-142.75;100.00;77385.31;4990302;28;19971;-67
2022/05/21 01:27:57;;;;;;;;;;;;;;;-142.75;100.00;77387.28;4989997;28;20252;-66
2022/05/21 01:30:26;;;;;;;;;;;;;;;-142.75;100.00;77377.44;4990225;28;19910;-67
2022/05/21 01:32:51;;;;;;;;;;;;;;;-142.75;100.00;77383.34;4990572;28;19910;-67
2022/05/21 01:35:18;;;;;;;;;;;;;;;-142.75;100.00;77379.41;4990283;28;19917;-67
2022/05/21 01:37:43;;;;;;;;;;;;;;;-142.75;100.00;77377.44;4990005;28;20004;-67
2022/05/21 01:40:09;;;;;;;;;;;;;;;-142.75;100.00;77371.53;4993543;28;20024;-68
2022/05/21 01:42:35;;;;;;;;;;;;;;;-142.75;100.00;77369.56;4993950;28;19909;-67
2022/05/21 01:45:00;;;;;;;;;;;;;;;-142.75;100.00;77367.59;4993865;28;19913;-67
2022/05/21 01:47:25;;;;;;;;;;;;;;;-142.75;100.00;77369.56;4993531;28;19918;-66
2022/05/21 01:49:51;;;;;;;;;;;;;;;-142.75;100.00;77359.72;4993534;28;19914;-67
2022/05/21 01:52:17;;;;;;;;;;;;;;;-142.75;100.00;77369.56;4992593;28;19971;-67
2022/05/21 01:54:42;;;;;;;;;;;;;;;-142.75;100.00;77373.50;4993622;28;19925;-67
2022/05/21 01:57:09;;;;;;;;;;;;;;;-142.75;100.00;77373.50;4992159;28;19913;-67
2022/05/21 01:59:34;;;;;;;;;;;;;;;-142.75;100.00;77373.50;4993210;28;20022;-67
2022/05/21 02:02:01;;;;;;;;;;;;;;;-142.75;100.00;77379.41;4994031;28;21606;-67
2022/05/21 02:04:26;;;;;;;;;;;;;;;-142.75;100.00;77377.44;5013084;28;19909;-67
2022/05/21 02:06:51;;;;;;;;;;;;;;;-142.75;100.00;77373.50;5013021;28;20385;-67
2022/05/21 02:09:17;;;;;;;;;;;;;;;-142.75;100.00;77383.34;5011459;28;19916;-67
2022/05/21 02:11:43;;;;;;;;;;;;;;;-142.75;100.00;77385.31;5011593;28;19913;-67
2022/05/21 02:14:09;;;;;;;;;;;;;;;-142.75;100.00;77387.28;5012678;28;19967;-67
2022/05/21 02:16:36;;;;;;;;;;;;;;;-142.75;100.00;77399.09;5012783;28;20309;-67
2022/05/21 02:19:02;;;;;;;;;;;;;;;-142.75;100.00;77399.09;5012089;28;19921;-67
2022/05/21 02:21:30;;;;;;;;;;;;;;;-142.75;100.00;77405.00;5012610;28;20283;-67
2022/05/21 02:23:56;;;;;;;;;;;;;;;-142.75;100.00;77410.91;5012562;28;20402;-67
2022/05/21 02:26:21;;;;;;;;;;;;;;;-142.75;100.00;77414.84;5012412;28;20008;-68
2022/05/21 02:28:47;;;;;;;;;;;;;;;-142.75;100.00;77416.81;5012054;28;20325;-67
2022/05/21 02:31:12;;;;;;;;;;;;;;;-142.75;100.00;77406.97;5012618;28;19909;-67
2022/05/21 02:33:37;;;;;;;;;;;;;;;-142.75;100.00;77410.91;5012943;28;19983;-67
2022/05/21 02:36:02;;;;;;;;;;;;;;;-142.75;100.00;77416.81;5012252;28;19909;-67
2022/05/21 02:41:13;;;;;;;;;;;;;;;-142.75;100.00;77416.81;4993145;28;19916;-67
2022/05/21 02:43:39;;;;;;;;;;;;;;;-142.75;100.00;77426.66;4992870;28;19914;-67
2022/05/21 02:46:04;;;;;;;;;;;;;;;-142.75;100.00;77426.66;5012255;28;19916;-67
2022/05/21 02:48:30;;;;;;;;;;;;;;;-142.75;100.00;77428.63;5011874;28;19909;-67
2022/05/21 02:50:56;;;;;;;;;;;;;;;-142.75;100.00;77436.50;5009642;28;20367;-67
2022/05/21 02:53:21;;;;;;;;;;;;;;;-142.75;100.00;77442.41;5011856;28;20266;-67
2022/05/21 02:55:47;;;;;;;;;;;;;;;-142.75;100.00;77444.38;5012030;28;19996;-67
2022/05/21 02:58:12;;;;;;;;;;;;;;;-142.75;100.00;77444.38;5011649;28;19916;-67
2022/05/21 03:00:38;;;;;;;;;;;;;;;-142.75;100.00;77446.34;5012017;28;20355;-67
2022/05/21 03:03:03;;;;;;;;;;;;;;;-142.75;100.00;77446.34;5012327;28;19909;-67
2022/05/21 03:05:31;;;;;;;;;;;;;;;-142.75;100.00;77448.34;5010566;28;19936;-67
2022/05/21 03:07:57;;;;;;;;;;;;;;;-142.75;100.00;77464.09;5010192;28;20425;-66
2022/05/21 03:10:24;;;;;;;;;;;;;;;-142.75;100.00;77456.22;5011812;28;19952;-67
2022/05/21 03:12:50;;;;;;;;;;;;;;;-142.75;100.00;77462.13;5011617;28;19909;-67
2022/05/21 03:15:16;;;;;;;;;;;;;;;-142.75;100.00;77464.09;5011694;28;19921;-68
2022/05/21 03:17:41;;;;;;;;;;;;;;;-142.75;100.00;77462.13;5011350;28;19909;-66
2022/05/21 03:20:07;;;;;;;;;;;;;;;-142.75;100.00;77464.09;5011615;28;20279;-67
2022/05/21 03:22:32;;;;;;;;;;;;;;;-142.75;100.00;77464.09;5011481;28;19913;-67
2022/05/21 03:24:57;;;;;;;;;;;;;;;-142.75;100.00;77470.00;5011372;28;19909;-66
2022/05/21 03:27:24;;;;;;;;;;;;;;;-142.75;100.00;77468.03;4991943;28;19920;-67
2022/05/21 03:29:49;;;;;;;;;;;;;;;-142.75;100.00;77477.88;4990565;28;20367;-67
2022/05/21 03:32:15;;;;;;;;;;;;;;;-142.75;100.00;77477.88;4992598;28;19966;-67
2022/05/21 03:34:40;;;;;;;;;;;;;;;-142.75;100.00;77483.78;4991680;28;20314;-67
2022/05/21 03:37:05;;;;;;;;;;;;;;;-142.75;100.00;77481.81;4991972;28;19917;-67
2022/05/21 03:39:31;;;;;;;;;;;;;;;-142.75;100.00;77479.84;4991510;28;19913;-67
2022/05/21 03:41:56;;;;;;;;;;;;;;;-142.75;100.00;77483.78;4991717;28;19921;-67
2022/05/21 03:44:22;;;;;;;;;;;;;;;-142.75;100.00;77479.84;4991793;28;19917;-67
2022/05/21 03:46:47;;;;;;;;;;;;;;;-142.75;100.00;77479.84;4991610;28;20000;-67
2022/05/21 03:49:12;;;;;;;;;;;;;;;-142.75;100.00;77485.75;4991176;28;19913;-67
2022/05/21 03:51:37;;;;;;;;;;;;;;;-142.75;100.00;77487.72;4991594;28;19930;-67
2022/05/21 03:54:03;;;;;;;;;;;;;;;-142.75;100.00;77495.59;4991272;28;19952;-67
2022/05/21 03:56:28;;;;;;;;;;;;;;;-142.75;100.00;77491.66;4991421;28;19910;-67
2022/05/21 03:58:53;;;;;;;;;;;;;;;-142.75;100.00;77493.63;4991024;28;19953;-67
2022/05/21 04:01:18;;;;;;;;;;;;;;;-142.75;100.00;77485.75;4991270;28;19921;-67
2022/05/21 04:03:44;;;;;;;;;;;;;;;-142.75;100.00;77495.59;4991564;28;19916;-67
2022/05/21 04:06:11;;;;;;;;;;;;;;;-142.75;100.00;77501.50;4991274;28;20298;-67
2022/05/21 04:08:36;;;;;;;;;;;;;;;-142.75;100.00;77499.53;4991044;28;19909;-67
2022/05/21 04:11:02;;;;;;;;;;;;;;;-142.75;100.00;77505.44;4991095;28;19929;-67
2022/05/21 04:13:28;;;;;;;;;;;;;;;-142.75;100.00;77507.41;4991115;28;19914;-67
2022/05/21 04:15:53;;;;;;;;;;;;;;;-142.75;100.00;77517.25;4991203;28;20259;-67
2022/05/21 04:18:19;;;;;;;;;;;;;;;-142.75;100.00;77523.16;4990735;28;20406;-67
2022/05/21 04:20:44;;;;;;;;;;;;;;;-142.75;100.00;77521.19;5009471;28;19916;-67
2022/05/21 04:23:10;;;;;;;;;;;;;;;-142.75;100.00;77527.09;5010475;28;19917;-67
2022/05/21 04:25:36;;;;;;;;;;;;;;;-142.75;100.00;77519.22;5010448;28;19967;-67
2022/05/21 04:28:01;;;;;;;;;;;;;;;-142.75;100.00;77523.16;5009989;28;20609;-67
2022/05/21 04:30:28;;;;;;;;;;;;;;;-142.75;100.00;77515.28;5010386;28;19909;-67
2022/05/21 04:32:54;;;;;;;;;;;;;;;-142.75;100.00;77515.28;5011142;28;20277;-67
2022/05/21 04:35:20;;;;;;;;;;;;;;;-142.75;100.00;77515.28;5010264;28;19909;-67
2022/05/21 04:37:46;;;;;;;;;;;;;;;-142.75;100.00;77511.34;5010015;28;19916;-67
2022/05/21 04:40:18;;;;;;;;;;;;;;;-142.75;100.00;77511.34;5009205;28;20020;-67
2022/05/21 04:42:44;;;;;;;;;;;;;;;-142.75;100.00;77507.41;5010298;28;19909;-67
2022/05/21 04:45:09;;;;;;;;;;;;;;;-142.75;100.00;77495.59;5010295;28;19921;-67
2022/05/21 04:47:35;;;;;;;;;;;;;;;-142.75;100.00;77495.59;5009847;28;19948;-67
2022/05/21 04:50:01;;;;;;;;;;;;;;;-142.75;100.00;77485.75;5009977;28;19920;-67
2022/05/21 04:52:26;;;;;;;;;;;;;;;-142.75;100.00;77473.94;5010015;28;19916;-67
2022/05/21 04:54:51;;;;;;;;;;;;;;;-142.75;100.00;77462.13;4997276;28;19930;-67
2022/05/21 04:57:16;;;;;;;;;;;;;;;-142.75;100.00;77464.09;4995727;28;19935;-67
2022/05/21 04:59:41;;;;;;;;;;;;;;;-142.75;100.00;77454.25;4994855;28;20274;-67
2022/05/21 05:02:07;;;;;;;;;;;;;;;-142.75;100.00;77436.50;4990953;28;20343;-67
2022/05/21 05:04:32;;;;;;;;;;;;;;;-142.75;100.00;77426.66;5021312;28;19922;-67
2022/05/21 05:06:57;;;;;;;;;;;;;;;-142.75;100.00;77422.72;5008479;28;20325;-67
2022/05/21 05:09:23;;;;;;;;;;;;;;;-142.75;100.00;77406.97;5010056;28;19996;-67
2022/05/21 05:11:49;;;;;;;;;;;;;;;-142.75;100.00;77395.16;5010011;28;19909;-67
2022/05/21 05:14:14;;;;;;;;;;;;;;;-142.75;100.00;77385.31;5027077;28;19913;-67
2022/05/21 05:16:39;;;;;;;;;;;;;;;-142.75;100.00;77371.53;5014003;28;20367;-66
2022/05/21 05:19:05;;;;;;;;;;;;;;;-142.75;100.00;77369.56;5012280;28;19913;-66
2022/05/21 05:21:30;;;;;;;;;;;;;;;-142.75;100.00;77359.72;5012824;28;20402;-67
2022/05/21 05:23:55;;;;;;;;;;;;;;;-142.75;100.00;77343.97;5013737;28;19909;-65
2022/05/21 05:26:22;;;;;;;;;;;;;;;-142.75;100.00;77326.25;5013679;28;20366;-65
2022/05/21 05:28:47;;;;;;;;;;;;;;;-142.75;100.00;77312.47;5007214;28;19909;-66
2022/05/21 05:31:13;;;;;;;;;;;;;;;-142.75;100.00;77316.41;4995129;28;20471;-66
2022/05/21 05:33:38;;;;;;;;;;;;;;;-142.75;100.00;77336.09;4995021;28;19944;-67
2022/05/21 05:36:03;;;;;;;;;;;;;;;-142.75;100.00;77318.38;5009819;28;19955;-67
2022/05/21 05:38:28;;;;;;;;;;;;;;;-142.75;100.00;77296.72;5013221;28;19914;-67
2022/05/21 05:40:55;;;;;;;;;;;;;;;-142.75;100.00;77279.00;5012493;28;19921;-67
2022/05/21 05:43:21;;;;;;;;;;;;;;;-142.75;100.00;77259.31;5013490;28;19910;-68
2022/05/21 05:45:47;;;;;;;;;;;;;;;-142.75;100.00;77267.19;5013469;28;19916;-67
2022/05/21 05:48:12;;;;;;;;;;;;;;;-142.75;100.00;77259.31;5012172;28;19909;-66
2022/05/21 05:50:38;;;;;;;;;;;;;;;-142.75;100.00;77243.56;5010908;28;19916;-66
2022/05/21 05:53:04;;;;;;;;;;;;;;;-142.75;100.00;77229.78;5012393;28;20286;-66
2022/05/21 05:55:30;;;;;;;;;;;;;;;-142.75;100.00;77217.97;5011834;28;19948;-67
2022/05/21 05:57:56;;;;;;;;;;;;;;;-142.75;100.00;77198.28;5011503;28;19910;-66
2022/05/21 06:00:21;;;;;;;;;;;;;;;-142.75;100.00;77194.34;5011346;28;19936;-66
2022/05/21 06:02:59;;;;;;;;;;;;;;;-142.75;100.00;77180.56;5011415;28;19913;-66
2022/05/21 06:05:25;;;;;;;;;;;;;;;-142.75;100.00;77188.44;4991971;28;20479;-66
2022/05/21 06:07:53;;;;;;;;;;;;;;;-142.75;100.00;77180.56;4992108;28;20332;-66
2022/05/21 06:10:20;;;;;;;;;;;;;;;-142.75;100.00;77174.66;5010596;28;20266;-66
2022/05/21 06:12:45;;;;;;;;;;;;;;;-142.75;100.00;77168.75;5011526;28;19909;-66
2022/05/21 06:15:11;;;;;;;;;;;;;;;-142.75;100.00;77164.81;5011275;28;19925;-66
2022/05/21 06:17:37;;;;;;;;;;;;;;;-142.75;100.00;77156.94;5010658;28;19916;-67
2022/05/21 06:20:03;;;;;;;;;;;;;;;-142.75;100.00;77186.47;5009548;28;19908;-66
2022/05/21 06:22:28;;;;;;;;;;;;;;;-142.75;100.00;77188.44;5011465;28;19916;-66
2022/05/21 06:24:53;;;;;;;;;;;;;;;-142.75;100.00;77162.84;5011148;28;19915;-66
2022/05/21 06:27:19;;;;;;;;;;;;;;;-142.75;100.00;77133.31;5011197;28;19960;-67
2022/05/21 06:29:45;;;;;;;;;;;;;;;-142.75;100.00;77131.34;5010575;28;19956;-66
2022/05/21 06:32:10;;;;;;;;;;;;;;;-142.75;100.00;77119.53;5011051;28;19913;-66
2022/05/21 06:34:36;;;;;;;;;;;;;;;-142.75;100.00;77133.31;5009687;28;19924;-66
2022/05/21 06:37:03;;;;;;;;;;;;;;;-142.75;100.00;77135.28;5009614;28;19960;-66
2022/05/21 06:39:29;;;;;;;;;;;;;;;-142.75;100.00;77149.06;5010452;28;19925;-65
2022/05/21 06:41:55;;;;;;;;;;;;;;;-142.75;100.00;77117.56;5007852;28;19909;-66
2022/05/21 06:44:20;;;;;;;;;;;;;;;-142.75;100.00;77111.66;4991383;28;19921;-66
2022/05/21 06:46:45;;;;;;;;;;;;;;;-142.75;100.00;77097.88;4991204;28;19917;-66
2022/05/21 06:49:10;;;;;;;;;;;;;;;-142.75;100.00;77078.19;4990867;28;19921;-66
2022/05/21 06:51:35;;;;;;;;;;;;;;;-142.75;100.00;77080.16;4991189;28;20014;-66
2022/05/21 06:54:01;;;;;;;;;;;;;;;-142.75;100.00;77076.22;4991080;28;19957;-66
2022/05/21 06:56:26;;;;;;;;;;;;;;;-142.75;100.00;77074.25;4991237;28;20275;-66
2022/05/21 06:58:51;;;;;;;;;;;;;;;-142.75;100.00;77056.53;4990701;28;19910;-66
2022/05/21 07:01:17;;;;;;;;;;;;;;;-142.75;100.00;77038.81;4990915;28;19913;-67
2022/05/21 07:03:42;;;;;;;;;;;;;;;-142.75;100.00;77034.88;4991148;28;20256;-67
2022/05/21 07:08:51;;;;;;;;;;;;;;;-142.75;100.00;76991.56;4990965;28;19924;-66
2022/05/21 07:11:16;;;;;;;;;;;;;;;-142.75;100.00;76956.13;5007439;28;20004;-66
2022/05/21 07:13:41;;;;;;;;;;;;;;;-142.75;100.00;76942.34;4999840;28;19921;-67
2022/05/21 07:16:06;;;;;;;;;;;;;;;-142.75;100.00;76952.19;4989503;28;19909;-66
2022/05/21 07:18:32;;;;;;;;;;;;;;;-142.75;100.00;76956.13;4990027;28;19910;-67
2022/05/21 07:20:57;;;;;;;;;;;;;;;-142.75;100.00;76948.25;4990795;28;19964;-67
2022/05/21 07:23:23;;;;;;;;;;;;;;;-142.75;100.00;76956.13;4989246;28;20311;-67
2022/05/21 07:25:48;;;;;;;;;;;;;;;-142.75;100.00;76952.19;4990570;28;20368;-67
2022/05/21 07:28:14;;;;;;;;;;;;;;;-142.75;100.00;76948.25;4990012;28;19937;-67
2022/05/21 07:30:40;;;;;;;;;;;;;;;-142.75;100.00;76912.81;4991592;28;19983;-67
2022/05/21 07:33:09;;;;;;;;;;;;;;;-142.75;100.00;76950.22;4989502;28;20352;-67
2022/05/21 07:35:36;;;;;;;;;;;;;;;-142.75;100.00;76942.34;4999382;28;19909;-67
2022/05/21 07:38:01;;;;;;;;;;;;;;;-142.75;100.00;76920.69;5008368;28;19913;-67
2022/05/21 07:40:26;;;;;;;;;;;;;;;-142.75;100.00;76971.88;5010643;28;19956;-67
2022/05/21 07:42:52;;;;;;;;;;;;;;;-142.75;100.00;76946.28;5010440;28;20359;-67
2022/05/21 07:45:19;;;;;;;;;;;;;;;-142.75;100.00;76948.25;5010190;28;20363;-67
2022/05/21 07:47:45;;;;;;;;;;;;;;;-142.75;100.00;76952.19;5008335;28;19916;-67
2022/05/21 07:50:11;;;;;;;;;;;;;;;-142.75;100.00;76932.50;5009510;28;19913;-68
2022/05/21 07:52:37;;;;;;;;;;;;;;;-142.75;100.00;76995.50;5009259;28;19913;-68
2022/05/21 07:55:02;;;;;;;;;;;;;;;-142.75;100.00;77023.06;5010688;28;19921;-67
2022/05/21 07:57:27;;;;;;;;;;;;;;;-142.75;100.00;77019.13;5009344;28;20434;-66
2022/05/21 07:59:53;;;;;;;;;;;;;;;-142.75;100.00;76964.00;5010417;28;19913;-68
2022/05/21 08:02:18;;;;;;;;;;;;;;;-142.75;100.00;76975.81;5010313;28;20317;-67
2022/05/21 08:04:47;;;;;;;;;;;;;;;-142.75;100.00;77019.13;5010788;28;20000;-66
2022/05/21 08:07:12;;;;;;;;;;;;;;;-142.75;100.00;77021.09;5010207;28;19910;-66
2022/05/21 08:09:38;;;;;;;;;;;;;;;-142.75;100.00;77082.13;5009623;28;19932;-67
2022/05/21 08:12:03;;;;;;;;;;;;;;;-142.75;100.00;77054.56;5009870;28;20007;-68
2022/05/21 08:14:28;;;;;;;;;;;;;;;-142.75;100.00;77038.81;5024893;28;20252;-67
2022/05/21 08:16:54;;;;;;;;;;;;;;;-142.75;100.00;77070.31;5009116;28;19913;-67
2022/05/21 08:19:19;;;;;;;;;;;;;;;-142.75;100.00;77058.50;5009368;28;19909;-67
2022/05/21 08:21:44;;;;;;;;;;;;;;;-142.75;100.00;77009.28;5008445;28;19924;-67
2022/05/21 08:26:56;;;;;;;;;;;;;;;-142.75;100.00;76895.09;5009639;28;19982;-67
2022/05/21 08:29:42;;;;;;;;;;;;;;;-142.75;100.00;76863.59;5009117;28;19917;-67
2022/05/21 08:32:07;;;;;;;;;;;;;;;-142.75;100.00;76863.59;5009044;28;19909;-67
2022/05/21 08:34:32;;;;;;;;;;;;;;;-142.75;100.00;76885.25;5009588;28;20365;-67
2022/05/21 08:36:57;;;;;;;;;;;;;;;-142.75;100.00;76881.31;5006533;28;19913;-67
2022/05/21 08:39:23;;;;;;;;;;;;;;;-142.75;100.00;76865.56;4989965;28;20310;-67
2022/05/21 08:41:53;;;;;;;;;;;;;;;-142.75;100.00;76863.59;4988815;28;20024;-67
2022/05/21 08:44:22;;;;;;;;;;;;;;;-142.75;100.00;76904.94;5008104;28;19964;-67
2022/05/21 08:47:00;;;;;;;;;;;;;;;-142.75;100.00;76904.94;5009813;28;19909;-67
2022/05/21 08:49:30;;;;;;;;;;;;;;;-142.75;100.00;76922.66;5009644;28;19964;-68
2022/05/21 08:51:58;;;;;;;;;;;;;;;-142.75;100.00;76958.09;5009026;28;20005;-68
2022/05/21 08:54:25;;;;;;;;;;;;;;;-142.75;100.00;76936.44;4991377;28;19925;-67
2022/05/21 08:56:52;;;;;;;;;;;;;;;-142.75;100.00;76924.63;4989136;28;19965;-67
2022/05/21 08:59:19;;;;;;;;;;;;;;;-142.75;100.00;76912.81;4989890;28;20379;-68
2022/05/21 09:01:44;;;;;;;;;;;;;;;-142.75;100.00;76934.47;4990093;28;20032;-67
2022/05/21 09:04:12;;;;;;;;;;;;;;;-142.75;100.00;76938.41;4989622;28;20391;-67
2022/05/21 09:06:46;;;;;;;;;;;;;;;-142.75;100.00;76922.66;4990306;28;19910;-67
2022/05/21 09:09:14;;;;;;;;;;;;;;;-142.75;100.00;76920.69;5008975;28;20282;-67
2022/05/21 09:11:41;;;;;;;;;;;;;;;-142.75;100.00;76958.09;5008674;28;20392;-68
2022/05/21 09:14:14;;;;;;;;;;;;;;;-142.75;100.00;76948.25;5009777;28;20278;-68
2022/05/21 09:16:55;;;;;;;;;;;;;;;-142.75;100.00;76932.50;4997534;28;20030;-67
2022/05/21 09:19:22;;;;;;;;;;;;;;;-142.75;100.00;76920.69;4989668;28;19913;-68
2022/05/21 09:21:50;;;;;;;;;;;;;;;-142.75;100.00;76904.94;4990195;28;20348;-68
2022/05/21 09:24:33;;;;;;;;;;;;;;;-142.75;100.00;76879.34;4988992;28;20003;-67
2022/05/21 09:26:59;;;;;;;;;;;;;;;-142.75;100.00;76881.31;5008955;28;21869;-67
2022/05/21 09:29:28;;;;;;;;;;;;;;;-142.75;100.00;76867.53;5009231;28;19909;-68
2022/05/21 09:31:54;;;;;;;;;;;;;;;-142.75;100.00;76849.81;5009438;28;19927;-67
2022/05/21 09:34:22;;;;;;;;;;;;;;;-142.75;100.00;76845.88;5009624;28;20422;-68
2022/05/21 09:36:47;;;;;;;;;;;;;;;-142.75;100.00;76857.69;5009564;28;19932;-67
2022/05/21 09:39:27;;;;;;;;;;;;;;;-142.75;100.00;76881.31;5009346;28;19909;-67
2022/05/21 09:42:05;;;;;;;;;;;;;;;-142.75;100.00;76857.69;5010083;28;19936;-66
2022/05/21 09:47:16;;;;;;;;;;;;;;;-142.75;100.00;76881.31;5009704;28;19963;-67
2022/05/21 09:49:42;;;;;;;;;;;;;;;-142.75;100.00;76883.28;5008789;28;20294;-67
2022/05/21 09:52:18;;;;;;;;;;;;;;;-142.75;100.00;76920.69;5008287;28;20255;-67
2022/05/21 09:54:43;;;;;;;;;;;;;;;-142.75;100.00;76932.50;5009331;28;19972;-67
2022/05/21 09:57:27;;;;;;;;;;;;;;;-142.75;100.00;76948.25;5009282;28;19910;-66
2022/05/21 10:00:11;;;;;;;;;;;;;;;-142.75;100.00;76954.16;5010297;28;19916;-66
2022/05/21 10:02:46;;;;;;;;;;;;;;;-142.75;100.00;76956.13;5013097;28;19925;-66
2022/05/21 10:05:15;;;;;;;;;;;;;;;-142.75;100.00;76962.03;5012748;28;19917;-67
2022/05/21 10:13:17;;;;;;;;;;;;;;;-142.75;100.00;76967.94;5012623;28;19986;-66
2022/05/21 10:15:44;;;;;;;;;;;;;;;-142.75;100.00;76997.47;5012419;28;19957;-66
2022/05/21 10:18:18;;;;;;;;;;;;;;;-142.75;100.00;76987.63;5012211;28;19996;-66
2022/05/21 10:20:46;;;;;;;;;;;;;;;-142.75;100.00;76981.72;5012349;28;19928;-66
2022/05/21 10:23:26;;;;;;;;;;;;;;;-142.75;100.00;76952.19;5012702;28;20015;-66
2022/05/21 10:26:12;;;;;;;;;;;;;;;-142.75;100.00;76924.63;5001493;28;19913;-67
2022/05/21 10:28:48;;;;;;;;;;;;;;;-142.75;100.00;76926.59;4994955;28;19914;-66
2022/05/21 10:31:24;;;;;;;;;;;;;;;-142.75;100.00;76914.78;5012184;28;20627;-67
2022/05/21 10:33:55;;;;;;;;;;;;;;;-142.75;100.00;76914.78;5012360;28;19913;-67
2022/05/21 10:36:29;;;;;;;;;;;;;;;-142.75;100.00;76924.63;5012166;28;20008;-67
2022/05/21 10:39:13;;;;;;;;;;;;;;;-142.75;100.00;76920.69;5011837;28;19910;-67
2022/05/21 10:41:56;;;;;;;;;;;;;;;-142.75;100.00;76885.25;5012804;28;19920;-66
2022/05/21 10:44:36;;;;;;;;;;;;;;;-142.75;100.00;76871.47;5011821;28;19924;-66
2022/05/21 10:47:04;;;;;;;;;;;;;;;-142.75;100.00;76847.84;5012131;28;19956;-66
2022/05/21 10:49:40;;;;;;;;;;;;;;;-142.75;100.00;76839.97;5011645;28;19913;-67
2022/05/21 10:52:28;;;;;;;;;;;;;;;-142.75;100.00;76845.88;5027303;28;20338;-67
2022/05/21 10:55:03;;;;;;;;;;;;;;;-142.75;100.00;76826.19;5005977;28;19975;-66
2022/05/21 10:57:40;;;;;;;;;;;;;;;-142.75;100.00;76810.44;5011574;28;19950;-66
2022/05/21 11:00:23;;;;;;;;;;;;;;;-142.75;100.00;76790.78;5011510;28;19956;-66
2022/05/21 11:02:49;;;;;;;;;;;;;;;-142.75;100.00;76778.97;5011549;28;19913;-66
2022/05/21 11:05:17;;;;;;;;;;;;;;;-142.75;100.00;76765.19;5011729;28;19955;-66
2022/05/21 11:07:45;;;;;;;;;;;;;;;-142.75;100.00;76735.66;5028496;22;19935;-66
2022/05/21 11:10:28;;;;;;;;;;;;;;;-142.75;100.00;76688.41;4992843;28;20474;-69
2022/05/21 11:12:57;;;;;;;;;;;;;;;-142.75;100.00;76643.13;5000854;28;20351;-68
2022/05/21 11:15:41;;;;;;;;;;;;;;;-142.75;100.00;76595.88;4994677;28;19917;-69
2022/05/21 11:18:13;;;;;;;;;;;;;;;-142.75;100.00;76566.34;4997070;28;19955;-70
2022/05/21 11:20:40;;;;;;;;;;;;;;;-142.75;100.00;76643.13;5007256;28;19917;-71
2022/05/21 11:23:24;;;;;;;;;;;;;;;-142.75;100.00;76664.78;4994461;28;19914;-71
2022/05/21 11:26:04;;;;;;;;;;;;;;;-142.75;100.00;76680.53;4992664;28;19910;-72
2022/05/21 11:28:29;;;;;;;;;;;;;;;-142.75;100.00;76721.88;5006405;28;19925;-72
2022/05/21 11:30:56;;;;;;;;;;;;;;;-142.75;100.00;76739.59;4995801;28;19909;-72
2022/05/21 11:38:54;;;;;;;;;;;;;;;-142.75;100.00;76782.91;5010425;28;20373;-69
2022/05/21 11:41:29;;;;;;;;;;;;;;;-142.75;100.00;76794.69;5011203;28;20019;-69
2022/05/21 11:46:45;;;;;;;;;;;;;;;-142.75;100.00;76767.16;4992469;28;19916;-69
2022/05/21 11:49:29;;;;;;;;;;;;;;;-142.75;100.00;76782.91;4991832;28;19914;-69
2022/05/21 11:51:57;;;;;;;;;;;;;;;-142.75;100.00;76735.66;4998781;28;19916;-69
2022/05/21 11:54:41;;;;;;;;;;;;;;;-142.75;100.00;76708.09;5011474;28;19968;-67
2022/05/21 11:57:06;;;;;;;;;;;;;;;-142.75;100.00;76743.53;5001948;28;20269;-69
2022/05/21 11:59:51;;;;;;;;;;;;;;;-142.75;100.00;76761.25;4986489;28;19914;-69
2022/05/21 12:02:20;;;;;;;;;;;;;;;-142.75;100.00;76800.63;5003540;28;20331;-70
2022/05/21 12:04:47;;;;;;;;;;;;;;;-142.75;100.00;76777.00;5000348;28;19910;-69
2022/05/21 12:07:35;;;;;;;;;;;;;;;-142.75;100.00;76780.94;5005730;28;19920;-67
2022/05/21 12:10:02;;;;;;;;;;;;;;;-142.75;100.00;76818.31;5012033;28;20029;-69
2022/05/21 12:12:28;;;;;;;;;;;;;;;-142.75;100.00;76806.50;5011543;28;19905;-69
2022/05/21 12:15:09;;;;;;;;;;;;;;;-142.75;100.00;76786.84;5003759;28;20007;-68
2022/05/21 12:18:09;;;;;;;;;;;;;;;-142.75;100.00;76733.69;4991688;28;19909;-69
2022/05/21 12:20:48;;;;;;;;;;;;;;;-142.75;100.00;76652.97;4969086;28;19995;-69
2022/05/21 12:23:33;;;;;;;;;;;;;;;-142.75;100.00;76591.94;4996063;28;19921;-71
2022/05/21 12:26:04;;;;;;;;;;;;;;;-142.75;100.00;76597.84;5011004;28;19962;-70
2022/05/21 12:28:38;;;;;;;;;;;;;;;-142.75;100.00;76574.22;4983624;28;20017;-71
2022/05/21 12:31:06;;;;;;;;;;;;;;;-142.75;100.00;76633.28;4996326;28;19916;-70
2022/05/21 12:33:35;;;;;;;;;;;;;;;-142.75;100.00;76637.22;5008660;28;19957;-71
2022/05/21 12:36:19;;;;;;;;;;;;;;;-142.75;100.00;76690.38;4999148;28;19910;-69
2022/05/21 12:38:47;;;;;;;;;;;;;;;-142.75;100.00;76692.34;5006927;28;20308;-70
2022/05/21 12:41:19;;;;;;;;;;;;;;;-142.75;100.00;76714.00;4974425;28;20000;-69
2022/05/21 12:43:49;;;;;;;;;;;;;;;-142.75;100.00;76715.97;4975825;28;20389;-71
2022/05/21 12:46:35;;;;;;;;;;;;;;;-142.75;100.00;76727.78;4997249;28;19910;-73
2022/05/21 12:49:04;;;;;;;;;;;;;;;-142.75;100.00;76755.34;4982838;28;19961;-69
2022/05/21 12:51:31;;;;;;;;;;;;;;;-142.75;100.00;76751.41;4993981;28;19948;-69